createdAt,value
2019-02-05T00:03:15.047Z,2.60
2019-02-05T00:08:20.347Z,2.70
2019-02-05T00:13:25.383Z,2.70
2019-02-05T00:18:30.420Z,2.70
2019-02-05T00:23:35.411Z,2.80
2019-02-05T00:28:40.432Z,2.80
2019-02-05T00:33:45.490Z,2.80
2019-02-05T00:38:50.571Z,2.80
2019-02-05T00:43:55.545Z,2.90
2019-02-05T00:49:00.716Z,2.90
2019-02-05T00:54:07.208Z,2.90
2019-02-05T00:59:12.223Z,2.90
2019-02-05T01:04:17.216Z,2.90
2019-02-05T01:09:22.205Z,2.90
2019-02-05T01:14:27.257Z,3.00
2019-02-05T01:19:32.332Z,2.90
2019-02-05T01:24:37.301Z,3.00
2019-02-05T01:29:42.300Z,3.00
2019-02-05T01:34:47.295Z,3.00
2019-02-05T01:39:52.299Z,3.00
2019-02-05T01:44:57.413Z,3.10
2019-02-05T01:50:02.461Z,3.10
2019-02-05T01:55:07.693Z,3.00
2019-02-05T02:00:16.030Z,3.10
2019-02-05T02:05:21.043Z,3.10
2019-02-05T02:10:27.596Z,3.10
2019-02-05T02:15:32.638Z,3.10
2019-02-05T02:20:37.629Z,3.10
2019-02-05T02:25:42.635Z,3.20
2019-02-05T02:30:47.735Z,3.20
2019-02-05T02:35:53.156Z,3.20
2019-02-05T02:40:58.288Z,3.20
2019-02-05T02:46:03.352Z,3.20
2019-02-05T02:51:08.462Z,3.20
2019-02-05T02:56:13.629Z,3.20
2019-02-05T03:01:18.652Z,3.20
2019-02-05T03:06:23.643Z,3.20
2019-02-05T03:11:28.599Z,3.20
2019-02-05T03:16:33.602Z,3.10
2019-02-05T03:21:38.619Z,3.20
2019-02-05T03:26:43.571Z,3.20
2019-02-05T03:31:48.599Z,3.20
2019-02-05T03:36:53.581Z,3.20
2019-02-05T03:41:58.602Z,3.20
2019-02-05T03:47:03.660Z,3.20
2019-02-05T03:52:23.283Z,3.20
2019-02-05T03:58:00.459Z,3.20
2019-02-05T04:03:42.050Z,3.30
2019-02-05T04:09:06.326Z,3.30
2019-02-05T04:14:51.475Z,3.30
2019-02-05T04:20:42.555Z,3.30
2019-02-05T04:26:11.003Z,3.30
2019-02-05T04:31:42.214Z,3.30
2019-02-05T04:37:29.537Z,3.30
2019-02-05T04:43:01.887Z,3.40
2019-02-05T04:49:04.942Z,3.40
2019-02-05T04:54:36.194Z,3.50
2019-02-05T05:00:21.071Z,3.40
2019-02-05T05:06:19.543Z,3.50
2019-02-05T05:11:24.519Z,3.50
2019-02-05T05:16:29.475Z,3.50
2019-02-05T05:21:34.455Z,3.50
2019-02-05T05:26:39.632Z,3.50
2019-02-05T05:31:44.594Z,3.60
2019-02-05T05:36:51.726Z,3.60
2019-02-05T05:41:56.658Z,3.60
2019-02-05T05:47:01.632Z,3.60
2019-02-05T05:52:06.627Z,3.60
2019-02-05T05:57:11.674Z,3.60
2019-02-05T06:02:18.466Z,3.70
2019-02-05T06:07:23.604Z,3.70
2019-02-05T06:12:28.708Z,3.70
2019-02-05T06:17:33.872Z,3.80
2019-02-05T06:22:40.094Z,3.80
2019-02-05T06:27:45.591Z,3.80
2019-02-05T06:32:50.573Z,3.80
2019-02-05T06:37:55.933Z,3.80
2019-02-05T06:43:01.437Z,3.80
2019-02-05T06:48:06.411Z,3.80
2019-02-05T06:53:11.908Z,3.80
2019-02-05T06:58:16.918Z,3.90
2019-02-05T07:03:22.155Z,3.80
2019-02-05T07:08:27.163Z,3.90
2019-02-05T07:13:32.122Z,3.90
2019-02-05T07:18:37.588Z,3.90
2019-02-05T07:23:42.570Z,3.90
2019-02-05T07:28:57.926Z,3.90
2019-02-05T07:33:54.204Z,3.90
2019-02-05T07:39:02.159Z,4.00
2019-02-05T07:44:07.450Z,4.00
2019-02-05T07:49:12.463Z,4.00
2019-02-05T07:54:17.470Z,4.00
2019-02-05T07:59:22.468Z,4.00
2019-02-05T08:04:27.495Z,4.00
2019-02-05T08:09:32.492Z,3.90
2019-02-05T08:14:37.494Z,4.00
2019-02-05T08:19:42.475Z,4.00
2019-02-05T08:24:47.879Z,3.90
2019-02-05T08:29:52.886Z,3.90
2019-02-05T08:34:57.886Z,4.00
2019-02-05T08:40:02.902Z,3.90
2019-02-05T08:45:10.347Z,4.00
2019-02-05T08:50:18.875Z,4.00
2019-02-05T08:55:23.874Z,4.00
2019-02-05T09:00:31.327Z,4.10
2019-02-05T09:05:36.327Z,4.10
2019-02-05T09:10:41.997Z,4.20
2019-02-05T09:15:52.777Z,4.20
2019-02-05T09:20:57.864Z,4.30
2019-02-05T09:26:02.846Z,4.40
2019-02-05T09:31:07.845Z,4.40
2019-02-05T09:36:12.845Z,4.50
2019-02-05T09:41:18.172Z,4.50
2019-02-05T09:46:23.222Z,4.50
2019-02-05T09:51:28.201Z,4.50
2019-02-05T09:56:33.182Z,4.60
2019-02-05T10:01:38.374Z,4.70
2019-02-05T10:06:43.677Z,4.70
2019-02-05T10:11:48.659Z,4.80
2019-02-05T10:16:53.657Z,4.80
2019-02-05T10:21:58.650Z,4.80
2019-02-05T10:27:03.628Z,4.80
2019-02-05T10:32:11.071Z,4.90
2019-02-05T10:37:16.075Z,5.00
2019-02-05T10:42:21.076Z,5.00
2019-02-05T10:47:26.119Z,5.20
2019-02-05T10:52:31.262Z,5.20
2019-02-05T10:57:36.762Z,5.20
2019-02-05T11:02:41.749Z,5.20
2019-02-05T11:07:46.742Z,5.40
2019-02-05T11:12:51.733Z,5.40
2019-02-05T11:17:56.956Z,5.50
2019-02-05T11:23:02.800Z,5.70
2019-02-05T11:28:07.820Z,5.70
2019-02-05T11:33:13.323Z,5.70
2019-02-05T11:38:18.371Z,5.70
2019-02-05T11:43:23.398Z,5.70
2019-02-05T11:48:28.392Z,6.00
2019-02-05T11:53:33.379Z,6.20
2019-02-05T11:58:38.370Z,6.20
2019-02-05T12:03:43.357Z,6.20
2019-02-05T12:08:48.342Z,6.30
2019-02-05T12:13:53.325Z,6.40
2019-02-05T12:18:58.397Z,6.60
2019-02-05T12:24:03.391Z,6.50
2019-02-05T12:29:08.680Z,6.50
2019-02-05T12:34:13.635Z,6.30
2019-02-05T12:39:22.114Z,6.30
2019-02-05T12:44:27.099Z,6.50
2019-02-05T12:49:32.078Z,6.30
2019-02-05T12:54:37.088Z,6.40
2019-02-05T12:59:42.111Z,6.40
2019-02-05T13:04:47.225Z,6.40
2019-02-05T13:09:52.706Z,6.50
2019-02-05T13:14:58.000Z,6.40
2019-02-05T13:20:03.220Z,6.30
2019-02-05T13:25:12.744Z,6.20
2019-02-05T13:30:20.453Z,6.10
2019-02-05T13:35:26.275Z,5.90
2019-02-05T13:40:31.668Z,5.80
2019-02-05T13:45:37.962Z,5.80
2019-02-05T13:50:43.344Z,5.80
2019-02-05T13:55:48.353Z,5.80
2019-02-05T14:00:55.231Z,5.80
2019-02-05T14:06:00.228Z,5.70
2019-02-05T14:11:05.635Z,5.70
2019-02-05T14:16:10.649Z,5.70
2019-02-05T14:21:15.645Z,5.70
2019-02-05T14:26:20.840Z,5.70
2019-02-05T14:31:31.326Z,5.70
2019-02-05T14:36:32.455Z,5.70
2019-02-05T14:41:37.439Z,5.80
2019-02-05T14:46:42.459Z,5.80
2019-02-05T14:51:47.970Z,5.80
2019-02-05T14:56:52.942Z,5.90
2019-02-05T15:01:57.928Z,5.80
2019-02-05T15:07:02.923Z,5.90
2019-02-05T15:12:07.989Z,5.80
2019-02-05T15:17:13.226Z,5.80
2019-02-05T15:22:18.203Z,5.70
2019-02-05T15:27:23.575Z,5.60
2019-02-05T15:33:02.542Z,5.50
2019-02-05T15:38:07.523Z,5.50
2019-02-05T15:43:12.546Z,5.50
2019-02-05T15:48:17.531Z,5.40
2019-02-05T15:53:22.506Z,5.40
2019-02-05T15:58:27.490Z,5.30
2019-02-05T16:03:32.507Z,5.30
2019-02-05T16:08:37.782Z,5.40
2019-02-05T16:13:42.766Z,5.40
2019-02-05T16:18:47.757Z,5.20
2019-02-05T16:23:52.906Z,5.20
2019-02-05T16:28:57.871Z,5.10
2019-02-05T16:34:02.860Z,5.10
2019-02-05T16:39:10.642Z,5.00
2019-02-05T16:44:15.626Z,5.00
2019-02-05T16:49:22.397Z,4.90
2019-02-05T16:54:27.248Z,4.80
2019-02-05T16:59:32.222Z,4.90
2019-02-05T17:04:37.211Z,4.90
2019-02-05T17:09:42.203Z,4.90
2019-02-05T17:14:47.197Z,5.00
2019-02-05T17:19:52.168Z,5.00
2019-02-05T17:24:57.159Z,4.90
2019-02-05T17:30:03.416Z,4.90
2019-02-05T17:35:09.181Z,4.90
2019-02-05T17:40:16.920Z,4.80
2019-02-05T17:45:24.457Z,4.80
2019-02-05T17:50:32.116Z,4.80
2019-02-05T17:55:37.536Z,4.80
2019-02-05T18:00:55.120Z,4.80
2019-02-05T18:06:00.257Z,4.70
2019-02-05T18:11:26.830Z,4.70
2019-02-05T18:16:34.618Z,4.70
2019-02-05T18:21:39.632Z,4.60
2019-02-05T18:26:44.631Z,4.60
2019-02-05T18:31:49.637Z,4.70
2019-02-05T18:36:54.652Z,4.70
2019-02-05T18:41:59.667Z,4.70
2019-02-05T18:47:04.657Z,4.60
2019-02-05T18:52:09.676Z,4.70
2019-02-05T18:57:14.717Z,4.60
2019-02-05T19:02:19.969Z,4.60
2019-02-05T19:07:24.949Z,4.60
2019-02-05T19:12:29.978Z,4.60
2019-02-05T19:17:34.950Z,4.60
2019-02-05T19:22:39.946Z,4.50
2019-02-05T19:27:46.249Z,4.50
2019-02-05T19:32:51.454Z,4.40
2019-02-05T19:37:56.649Z,4.40
2019-02-05T19:43:02.225Z,4.40
2019-02-05T19:48:10.477Z,4.40
2019-02-05T19:53:16.029Z,4.30
2019-02-05T19:58:21.033Z,4.30
2019-02-05T20:03:38.034Z,4.30
2019-02-05T20:08:33.167Z,4.30
2019-02-05T20:13:40.285Z,4.30
2019-02-05T20:18:44.830Z,4.30
2019-02-05T20:23:49.820Z,4.30
2019-02-05T20:28:55.117Z,4.30
2019-02-05T20:34:00.112Z,4.30
2019-02-05T20:39:12.642Z,4.20
2019-02-05T20:44:17.646Z,4.20
2019-02-05T20:49:22.635Z,4.20
2019-02-05T20:54:27.667Z,4.20
2019-02-05T20:59:32.666Z,4.20
2019-02-05T21:04:48.000Z,4.20
2019-02-05T21:09:46.618Z,4.10
2019-02-05T21:14:51.701Z,4.10
2019-02-05T21:19:56.724Z,4.10
2019-02-05T21:25:01.715Z,4.10
2019-02-05T21:30:08.775Z,4.10
2019-02-05T21:35:14.083Z,4.10
2019-02-05T21:40:20.737Z,4.00
2019-02-05T21:45:26.055Z,4.00
2019-02-05T21:50:31.302Z,4.00
2019-02-05T21:55:36.692Z,4.00
2019-02-05T22:00:41.707Z,4.00
2019-02-05T22:05:46.724Z,4.00
2019-02-05T22:11:10.815Z,4.00
2019-02-05T22:16:19.815Z,4.10
2019-02-05T22:21:25.053Z,4.10
2019-02-05T22:26:30.057Z,4.20
2019-02-05T22:31:35.429Z,4.20
2019-02-05T22:36:40.814Z,4.20
2019-02-05T22:41:46.396Z,4.10
2019-02-05T22:46:51.407Z,4.10
2019-02-05T22:51:59.591Z,4.10
2019-02-05T22:57:04.638Z,4.10
2019-02-05T23:02:10.171Z,4.00
2019-02-05T23:07:21.065Z,4.10
2019-02-05T23:12:36.444Z,4.00
2019-02-05T23:17:41.838Z,4.10
2019-02-05T23:22:47.144Z,4.10
2019-02-05T23:27:52.255Z,4.00
2019-02-05T23:32:57.695Z,4.00
2019-02-05T23:38:02.975Z,4.00
2019-02-05T23:43:08.006Z,4.00
2019-02-05T23:48:13.031Z,3.90
2019-02-05T23:53:18.752Z,3.90
2019-02-05T23:58:23.764Z,3.90
